createdAt,value
2018-09-09T00:01:27.305Z,68.75
2018-09-09T00:04:31.039Z,68.32
2018-09-09T00:07:34.840Z,69.22
2018-09-09T00:10:38.483Z,69.06
2018-09-09T00:13:42.245Z,68.67
2018-09-09T00:16:45.846Z,70.22
2018-09-09T00:19:49.504Z,68.27
2018-09-09T00:22:53.363Z,69.39
2018-09-09T00:25:57.010Z,69.08
2018-09-09T00:29:00.644Z,69.57
2018-09-09T00:32:04.350Z,70.08
2018-09-09T00:35:08.038Z,69.86
2018-09-09T00:38:11.771Z,69.95
2018-09-09T00:41:15.509Z,69.51
2018-09-09T00:44:19.245Z,70.24
2018-09-09T00:47:22.879Z,69.81
2018-09-09T00:50:31.863Z,70.31
2018-09-09T00:53:40.709Z,70.48
2018-09-09T00:56:44.300Z,70.62
2018-09-09T00:59:47.899Z,71.39
2018-09-09T01:02:51.501Z,70.68
2018-09-09T01:05:55.273Z,71.17
2018-09-09T01:08:58.844Z,71.53
2018-09-09T01:12:03.860Z,70.30
2018-09-09T01:15:07.800Z,70.47
2018-09-09T01:18:11.594Z,70.05
2018-09-09T01:21:15.169Z,71.47
2018-09-09T01:24:18.814Z,71.58
2018-09-09T01:27:22.430Z,71.59
2018-09-09T01:30:26.124Z,72.78
2018-09-09T01:33:29.736Z,73.41
2018-09-09T01:36:33.377Z,74.04
2018-09-09T01:39:37.427Z,75.14
2018-09-09T01:42:41.256Z,74.03
2018-09-09T01:45:44.855Z,73.89
2018-09-09T01:48:48.655Z,74.35
2018-09-09T01:51:52.275Z,74.84
2018-09-09T01:54:55.951Z,74.86
2018-09-09T01:57:59.580Z,74.88
2018-09-09T02:01:03.142Z,74.91
2018-09-09T02:04:06.884Z,75.23
2018-09-09T02:07:10.489Z,74.85
2018-09-09T02:10:14.180Z,74.42
2018-09-09T02:13:17.941Z,74.72
2018-09-09T02:16:21.579Z,73.81
2018-09-09T02:19:25.323Z,74.92
2018-09-09T02:22:28.935Z,74.62
2018-09-09T02:25:32.550Z,74.59
2018-09-09T02:28:36.301Z,74.24
2018-09-09T02:31:39.966Z,74.02
2018-09-09T02:34:43.556Z,75.35
2018-09-09T02:37:47.116Z,74.25
2018-09-09T02:40:50.713Z,74.36
2018-09-09T02:43:54.510Z,74.71
2018-09-09T02:46:58.356Z,73.20
2018-09-09T02:50:01.967Z,74.26
2018-09-09T02:53:06.090Z,74.60
2018-09-09T02:56:09.732Z,75.13
2018-09-09T02:59:13.370Z,75.07
2018-09-09T03:02:17.166Z,75.40
2018-09-09T03:05:20.807Z,75.54
2018-09-09T03:08:24.619Z,75.46
2018-09-09T03:11:28.231Z,75.28
2018-09-09T03:14:31.911Z,75.55
2018-09-09T03:17:35.630Z,75.51
2018-09-09T03:20:39.211Z,75.81
2018-09-09T03:23:45.555Z,76.17
2018-09-09T03:26:49.191Z,76.20
2018-09-09T03:29:52.885Z,76.55
2018-09-09T03:32:56.482Z,77.19
2018-09-09T03:36:00.048Z,77.07
2018-09-09T03:39:04.957Z,76.91
2018-09-09T03:42:08.711Z,75.59
2018-09-09T03:45:12.332Z,75.72
2018-09-09T03:48:15.912Z,76.93
2018-09-09T03:51:19.614Z,77.31
2018-09-09T03:54:23.332Z,77.26
2018-09-09T03:57:26.918Z,77.39
2018-09-09T04:00:30.512Z,77.30
2018-09-09T04:03:34.250Z,77.47
2018-09-09T04:06:37.855Z,77.25
2018-09-09T04:09:41.493Z,77.55
2018-09-09T04:12:45.048Z,77.71
2018-09-09T04:15:48.809Z,77.65
2018-09-09T04:18:52.537Z,77.48
2018-09-09T04:21:56.146Z,77.64
2018-09-09T04:24:59.800Z,76.69
2018-09-09T04:28:03.363Z,76.82
2018-09-09T04:31:06.953Z,77.05
2018-09-09T04:34:10.826Z,76.51
2018-09-09T04:37:14.496Z,75.88
2018-09-09T04:40:18.207Z,75.75
2018-09-09T04:43:21.852Z,75.71
2018-09-09T04:46:25.454Z,75.60
2018-09-09T04:49:29.011Z,75.46
2018-09-09T04:52:32.651Z,75.68
2018-09-09T04:55:36.262Z,75.02
2018-09-09T04:58:39.797Z,75.57
2018-09-09T05:01:43.407Z,76.18
2018-09-09T05:04:47.078Z,76.28
2018-09-09T05:07:50.852Z,75.58
2018-09-09T05:10:54.442Z,75.32
2018-09-09T05:13:58.078Z,74.62
2018-09-09T05:17:01.762Z,74.14
2018-09-09T05:20:05.615Z,75.01
2018-09-09T05:23:09.229Z,75.79
2018-09-09T05:26:12.923Z,76.22
2018-09-09T05:29:16.538Z,76.32
2018-09-09T05:32:20.144Z,76.49
2018-09-09T05:35:23.906Z,76.54
2018-09-09T05:38:27.701Z,75.94
2018-09-09T05:41:31.342Z,75.46
2018-09-09T05:44:35.016Z,72.74
2018-09-09T05:47:38.627Z,70.15
2018-09-09T05:50:42.498Z,66.95
2018-09-09T05:53:46.375Z,66.42
2018-09-09T05:56:50.002Z,64.42
2018-09-09T05:59:53.629Z,64.49
2018-09-09T06:02:57.269Z,64.19
2018-09-09T06:06:00.849Z,65.23
2018-09-09T06:09:06.044Z,64.85
2018-09-09T06:12:09.718Z,66.61
2018-09-09T06:15:13.423Z,64.56
2018-09-09T06:18:17.134Z,68.40
2018-09-09T06:21:20.899Z,65.74
2018-09-09T06:24:24.583Z,66.37
2018-09-09T06:27:28.266Z,66.02
2018-09-09T06:30:31.959Z,67.01
2018-09-09T06:33:35.645Z,66.75
2018-09-09T06:36:39.307Z,67.74
2018-09-09T06:39:42.939Z,65.87
2018-09-09T06:42:46.674Z,65.77
2018-09-09T06:45:50.334Z,64.38
2018-09-09T06:48:54.013Z,63.17
2018-09-09T06:51:57.658Z,61.81
2018-09-09T06:55:01.364Z,61.71
2018-09-09T06:58:05.070Z,62.23
2018-09-09T07:01:08.787Z,62.74
2018-09-09T07:04:12.551Z,62.47
2018-09-09T07:07:16.299Z,61.64
2018-09-09T07:10:19.909Z,63.52
2018-09-09T07:13:23.630Z,61.42
2018-09-09T07:16:27.310Z,59.92
2018-09-09T07:19:30.984Z,58.98
2018-09-09T07:22:34.643Z,59.25
2018-09-09T07:25:38.428Z,57.34
2018-09-09T07:28:42.143Z,59.24
2018-09-09T07:31:45.789Z,59.11
2018-09-09T07:34:49.521Z,58.27
2018-09-09T07:37:54.052Z,57.50
2018-09-09T07:40:57.824Z,57.76
2018-09-09T07:44:01.486Z,57.26
2018-09-09T07:47:05.305Z,58.16
2018-09-09T07:50:09.066Z,57.31
2018-09-09T07:53:12.852Z,56.30
2018-09-09T07:56:16.525Z,56.44
2018-09-09T07:59:20.740Z,57.08
2018-09-09T08:02:24.590Z,57.80
2018-09-09T08:05:28.285Z,57.37
2018-09-09T08:08:32.026Z,59.77
2018-09-09T08:11:38.542Z,58.85
2018-09-09T08:14:42.236Z,57.36
2018-09-09T08:17:46.752Z,57.24
2018-09-09T08:20:52.157Z,56.54
2018-09-09T08:23:56.045Z,56.69
2018-09-09T08:26:59.717Z,56.50
2018-09-09T08:30:03.555Z,57.00
2018-09-09T08:33:07.376Z,56.98
2018-09-09T08:36:11.084Z,56.11
2018-09-09T08:39:14.733Z,57.86
2018-09-09T08:42:18.446Z,56.93
2018-09-09T08:45:22.201Z,55.60
2018-09-09T08:48:25.862Z,55.24
2018-09-09T08:51:29.645Z,54.26
2018-09-09T08:54:33.431Z,53.79
2018-09-09T08:57:37.131Z,54.38
2018-09-09T09:00:40.902Z,54.99
2018-09-09T09:03:44.661Z,53.96
2018-09-09T09:06:48.402Z,54.79
2018-09-09T09:09:52.156Z,53.80
2018-09-09T09:12:55.921Z,54.28
2018-09-09T09:15:59.661Z,54.05
2018-09-09T09:19:03.283Z,54.63
2018-09-09T09:22:07.710Z,53.93
2018-09-09T09:25:11.520Z,53.79
2018-09-09T09:28:15.297Z,54.72
2018-09-09T09:31:19.086Z,53.96
2018-09-09T09:34:22.806Z,53.53
2018-09-09T09:37:27.102Z,54.06
2018-09-09T09:40:30.797Z,51.82
2018-09-09T09:43:34.552Z,52.59
2018-09-09T09:46:38.144Z,52.02
2018-09-09T09:49:41.941Z,51.21
2018-09-09T09:52:45.653Z,50.55
2018-09-09T09:55:49.298Z,49.84
2018-09-09T09:58:53.167Z,47.29
2018-09-09T10:01:57.032Z,48.06
2018-09-09T10:05:00.842Z,47.94
2018-09-09T10:08:05.281Z,47.29
2018-09-09T10:11:09.021Z,47.92
2018-09-09T10:14:12.736Z,48.59
2018-09-09T10:17:16.391Z,49.56
2018-09-09T10:20:20.100Z,48.20
2018-09-09T10:23:23.976Z,47.78
2018-09-09T10:26:28.359Z,47.99
2018-09-09T10:29:34.687Z,48.11
2018-09-09T10:32:38.439Z,47.05
2018-09-09T10:35:42.619Z,47.88
2018-09-09T10:38:46.366Z,47.30
2018-09-09T10:41:50.169Z,48.26
2018-09-09T10:44:54.086Z,46.43
2018-09-09T10:47:58.783Z,47.50
2018-09-09T10:51:02.513Z,46.98
2018-09-09T10:54:06.273Z,45.50
2018-09-09T10:57:10.207Z,45.29
2018-09-09T11:00:14.129Z,45.04
2018-09-09T11:03:18.913Z,44.89
2018-09-09T11:06:22.897Z,45.30
2018-09-09T11:09:28.385Z,45.47
2018-09-09T11:12:32.779Z,44.37
2018-09-09T11:15:37.159Z,46.20
2018-09-09T11:18:41.009Z,46.72
2018-09-09T11:21:45.246Z,46.26
2018-09-09T11:24:49.352Z,45.76
2018-09-09T11:27:53.161Z,47.36
2018-09-09T11:30:56.868Z,46.50
2018-09-09T11:34:01.028Z,47.41
2018-09-09T11:37:04.905Z,47.95
2018-09-09T11:40:08.853Z,48.23
2018-09-09T11:43:12.792Z,48.33
2018-09-09T11:46:16.797Z,48.16
2018-09-09T11:49:20.532Z,48.06
2018-09-09T11:52:24.503Z,48.09
2018-09-09T11:55:28.477Z,48.00
2018-09-09T11:58:32.358Z,47.81
2018-09-09T12:01:36.268Z,47.87
2018-09-09T12:04:40.097Z,47.30
2018-09-09T12:07:44.184Z,46.77
2018-09-09T12:10:47.978Z,46.53
2018-09-09T12:13:51.933Z,46.72
2018-09-09T12:16:55.758Z,47.31
2018-09-09T12:19:59.540Z,45.33
2018-09-09T12:23:03.612Z,44.98
2018-09-09T12:26:07.464Z,42.85
2018-09-09T12:29:11.213Z,43.28
2018-09-09T12:32:15.844Z,43.98
2018-09-09T12:35:19.930Z,43.76
2018-09-09T12:38:23.798Z,44.58
2018-09-09T12:41:31.923Z,43.31
2018-09-09T12:44:44.232Z,43.05
2018-09-09T12:47:53.482Z,42.53
2018-09-09T12:50:57.289Z,43.07
2018-09-09T12:54:01.143Z,42.79
2018-09-09T12:57:05.040Z,44.09
2018-09-09T13:00:09.303Z,42.44
2018-09-09T13:03:13.119Z,43.55
2018-09-09T13:06:18.067Z,42.72
2018-09-09T13:09:21.918Z,41.79
2018-09-09T13:12:29.550Z,42.02
2018-09-09T13:15:33.946Z,42.89
2018-09-09T13:18:37.774Z,42.63
2018-09-09T13:21:41.514Z,43.62
2018-09-09T13:24:45.361Z,43.53
2018-09-09T13:27:49.184Z,43.31
2018-09-09T13:30:52.983Z,44.60
2018-09-09T13:33:56.776Z,42.89
2018-09-09T13:37:00.505Z,43.51
2018-09-09T13:40:05.466Z,42.71
2018-09-09T13:43:09.188Z,42.05
2018-09-09T13:46:13.997Z,41.99
2018-09-09T13:49:17.763Z,42.60
2018-09-09T13:52:21.738Z,42.24
2018-09-09T13:55:25.492Z,41.89
2018-09-09T13:58:29.254Z,43.76
2018-09-09T14:01:33.264Z,43.33
2018-09-09T14:04:37.459Z,44.02
2018-09-09T14:07:41.363Z,44.12
2018-09-09T14:10:45.085Z,43.61
2018-09-09T14:13:48.819Z,44.29
2018-09-09T14:16:52.524Z,43.64
2018-09-09T14:19:56.256Z,44.40
2018-09-09T14:23:00.030Z,44.85
2018-09-09T14:26:03.841Z,42.85
2018-09-09T14:29:07.654Z,42.19
2018-09-09T14:32:11.460Z,42.76
2018-09-09T14:35:15.400Z,42.49
2018-09-09T14:38:19.275Z,42.92
2018-09-09T14:41:22.950Z,43.06
2018-09-09T14:44:26.837Z,42.37
2018-09-09T14:47:30.585Z,43.39
2018-09-09T14:50:34.316Z,42.25
2018-09-09T14:53:38.199Z,41.95
2018-09-09T14:56:41.919Z,41.94
2018-09-09T14:59:45.650Z,42.25
2018-09-09T15:02:49.603Z,41.91
2018-09-09T15:05:53.410Z,41.76
2018-09-09T15:08:57.094Z,41.42
2018-09-09T15:12:00.715Z,42.24
2018-09-09T15:15:04.683Z,42.79
2018-09-09T15:18:08.429Z,43.30
2018-09-09T15:21:12.118Z,42.85
2018-09-09T15:24:15.919Z,43.43
2018-09-09T15:27:19.811Z,44.01
2018-09-09T15:30:23.607Z,42.69
2018-09-09T15:33:27.330Z,42.11
2018-09-09T15:36:30.998Z,42.60
2018-09-09T15:39:34.885Z,41.65
2018-09-09T15:42:38.631Z,43.09
2018-09-09T15:45:42.486Z,40.80
2018-09-09T15:48:46.261Z,40.82
2018-09-09T15:51:50.044Z,41.46
2018-09-09T15:54:53.815Z,42.32
2018-09-09T15:57:57.561Z,42.63
2018-09-09T16:01:01.205Z,42.02
2018-09-09T16:04:04.929Z,41.52
2018-09-09T16:07:08.723Z,41.67
2018-09-09T16:10:12.316Z,42.21
2018-09-09T16:13:16.073Z,42.27
2018-09-09T16:16:19.778Z,42.99
2018-09-09T16:19:23.666Z,43.80
2018-09-09T16:22:27.620Z,44.01
2018-09-09T16:25:31.290Z,44.73
2018-09-09T16:28:34.975Z,45.24
2018-09-09T16:31:38.760Z,46.71
2018-09-09T16:34:42.421Z,45.88
2018-09-09T16:37:46.348Z,46.70
2018-09-09T16:40:50.081Z,46.52
2018-09-09T16:43:53.862Z,46.43
2018-09-09T16:46:57.672Z,48.48
2018-09-09T16:50:01.477Z,47.88
2018-09-09T16:53:05.232Z,46.82
2018-09-09T16:56:08.984Z,47.21
2018-09-09T16:59:12.765Z,47.83
2018-09-09T17:02:16.430Z,48.15
2018-09-09T17:05:20.081Z,48.40
2018-09-09T17:08:23.838Z,48.05
2018-09-09T17:11:27.508Z,48.74
2018-09-09T17:14:31.511Z,49.16
2018-09-09T17:17:35.225Z,48.56
2018-09-09T17:20:38.998Z,51.19
2018-09-09T17:23:42.861Z,53.26
2018-09-09T17:26:46.666Z,54.91
2018-09-09T17:29:50.422Z,55.30
2018-09-09T17:32:54.193Z,55.37
2018-09-09T17:35:57.897Z,56.72
2018-09-09T17:39:01.731Z,57.59
2018-09-09T17:42:05.477Z,56.90
2018-09-09T17:45:09.928Z,57.78
2018-09-09T17:48:13.654Z,58.62
2018-09-09T17:51:25.386Z,59.87
2018-09-09T17:54:29.745Z,60.97
2018-09-09T17:57:33.497Z,61.96
2018-09-09T18:00:37.196Z,62.32
2018-09-09T18:03:40.773Z,62.87
2018-09-09T18:06:44.703Z,63.05
2018-09-09T18:09:48.496Z,63.67
2018-09-09T18:12:56.842Z,63.27
2018-09-09T18:16:00.660Z,63.12
2018-09-09T18:19:04.438Z,63.62
2018-09-09T18:22:08.212Z,63.29
2018-09-09T18:25:11.880Z,63.32
2018-09-09T18:28:15.574Z,63.26
2018-09-09T18:31:19.332Z,63.83
2018-09-09T18:34:23.106Z,63.36
2018-09-09T18:37:26.779Z,63.42
2018-09-09T18:40:39.207Z,63.19
2018-09-09T18:43:42.849Z,62.84
2018-09-09T18:46:46.567Z,63.66
2018-09-09T18:49:50.238Z,64.38
2018-09-09T18:52:54.026Z,63.72
2018-09-09T18:55:57.793Z,64.10
2018-09-09T18:59:01.524Z,64.45
2018-09-09T19:02:05.388Z,64.92
2018-09-09T19:05:09.226Z,64.71
2018-09-09T19:08:12.904Z,65.44
2018-09-09T19:11:16.678Z,65.25
2018-09-09T19:14:20.320Z,65.63
2018-09-09T19:17:24.082Z,66.01
2018-09-09T19:20:29.022Z,66.55
2018-09-09T19:23:32.801Z,65.87
2018-09-09T19:26:36.552Z,65.92
2018-09-09T19:29:40.309Z,66.22
2018-09-09T19:32:44.033Z,66.08
2018-09-09T19:35:47.771Z,66.80
2018-09-09T19:38:51.789Z,66.44
2018-09-09T19:41:55.729Z,66.70
2018-09-09T19:44:59.522Z,66.83
2018-09-09T19:48:03.208Z,66.60
2018-09-09T19:51:07.057Z,66.83
2018-09-09T19:54:10.739Z,66.89
2018-09-09T19:57:14.578Z,67.19
2018-09-09T20:00:18.373Z,67.44
2018-09-09T20:03:22.333Z,66.83
2018-09-09T20:06:26.027Z,66.67
2018-09-09T20:09:29.715Z,66.57
2018-09-09T20:12:33.439Z,66.13
2018-09-09T20:15:37.524Z,65.84
2018-09-09T20:18:44.176Z,66.24
2018-09-09T20:21:48.074Z,66.89
2018-09-09T20:24:51.771Z,67.08
2018-09-09T20:27:55.420Z,67.34
2018-09-09T20:30:59.189Z,67.08
2018-09-09T20:34:02.906Z,66.69
2018-09-09T20:37:06.877Z,66.74
2018-09-09T20:40:10.619Z,66.70
2018-09-09T20:43:14.475Z,66.14
2018-09-09T20:46:18.238Z,66.77
2018-09-09T20:49:21.969Z,67.76
2018-09-09T20:52:25.815Z,68.25
2018-09-09T20:55:29.733Z,67.14
2018-09-09T20:58:33.402Z,66.93
2018-09-09T21:01:38.069Z,67.26
2018-09-09T21:04:41.818Z,66.70
2018-09-09T21:07:45.748Z,67.21
2018-09-09T21:10:49.980Z,68.50
2018-09-09T21:13:54.146Z,68.83
2018-09-09T21:16:57.974Z,69.36
2018-09-09T21:20:01.699Z,67.89
2018-09-09T21:23:05.426Z,68.44
2018-09-09T21:26:09.096Z,67.83
2018-09-09T21:29:12.734Z,68.21
2018-09-09T21:32:16.433Z,69.10
2018-09-09T21:35:20.270Z,69.57
2018-09-09T21:38:23.979Z,69.33
2018-09-09T21:41:27.732Z,69.79
2018-09-09T21:44:31.394Z,69.74
2018-09-09T21:47:35.085Z,70.10
2018-09-09T21:50:38.802Z,70.42
2018-09-09T21:53:42.373Z,70.35
2018-09-09T21:56:46.067Z,70.15
2018-09-09T21:59:49.841Z,70.44
2018-09-09T22:02:53.611Z,69.97
2018-09-09T22:05:58.013Z,70.48
2018-09-09T22:09:01.643Z,70.35
2018-09-09T22:12:05.483Z,70.53
2018-09-09T22:15:09.150Z,70.25
2018-09-09T22:18:12.716Z,70.66
2018-09-09T22:21:16.790Z,70.60
2018-09-09T22:24:21.570Z,70.35
2018-09-09T22:27:25.279Z,70.50
2018-09-09T22:30:29.025Z,70.72
2018-09-09T22:33:33.507Z,69.99
2018-09-09T22:36:37.159Z,69.50
2018-09-09T22:39:40.858Z,69.95
2018-09-09T22:42:44.456Z,69.56
2018-09-09T22:45:50.218Z,69.23
2018-09-09T22:48:53.891Z,69.34
2018-09-09T22:51:57.514Z,69.34
2018-09-09T22:55:01.195Z,70.00
2018-09-09T22:58:05.185Z,69.27
2018-09-09T23:01:08.889Z,67.03
2018-09-09T23:04:12.644Z,67.07
2018-09-09T23:07:16.353Z,66.62
2018-09-09T23:10:20.011Z,66.67
2018-09-09T23:13:23.710Z,66.99
2018-09-09T23:16:27.365Z,68.09
2018-09-09T23:19:31.029Z,70.16
2018-09-09T23:22:34.674Z,69.60
2018-09-09T23:25:38.260Z,69.57
2018-09-09T23:28:41.964Z,69.12
2018-09-09T23:31:45.753Z,67.96
2018-09-09T23:34:49.435Z,65.74
2018-09-09T23:37:53.089Z,66.62
2018-09-09T23:40:56.917Z,66.95
2018-09-09T23:44:00.551Z,65.58
2018-09-09T23:47:04.136Z,63.99
2018-09-09T23:50:08.120Z,63.83
2018-09-09T23:53:11.842Z,66.03
2018-09-09T23:56:15.494Z,67.29
2018-09-09T23:59:19.145Z,65.96
